Time;durP1;ratioP1;P1;durP2;ratioP2;P2;SDS_P1;SDS_P2;PMS_P1;PMS_P2;Temp;Humidity;BMP_temperature;BMP_pressure;BME280_temperature;BME280_humidity;BME280_pressure;Samples;Min_cycle;Max_cycle;Signal;HPM_P1;HPM_P2
2022/12/07 00:02:16;;;;;;;27.80;18.40;;;;;;;1.64;91.44;99746.71;101801;1313;88481;-55
2022/12/07 00:04:54;;;;;;;24.50;16.70;;;;;;;1.65;91.46;99746.31;101573;1317;94723;-56
2022/12/07 00:07:33;;;;;;;26.70;17.10;;;;;;;1.61;91.38;99741.91;101592;1318;83044;-56
2022/12/07 00:10:09;;;;;;;24.10;15.50;;;;;;;1.58;91.46;99738.62;101569;1316;81923;-57
2022/12/07 00:12:47;;;;;;;26.90;18.10;;;;;;;1.57;91.48;99731.61;101616;1316;99192;-59
2022/12/07 00:15:26;;;;;;;33.40;22.60;;;;;;;1.52;91.55;99731.92;101623;1317;87786;-58
2022/12/07 00:18:07;;;;;;;30.80;20.40;;;;;;;1.50;91.68;99725.91;101608;1317;94837;-57
2022/12/07 00:20:41;;;;;;;45.00;26.70;;;;;;;1.51;91.70;99725.26;101625;1316;80776;-56
2022/12/07 00:23:17;;;;;;;30.90;18.70;;;;;;;1.59;91.67;99727.02;101607;1316;82359;-56
2022/12/07 00:25:51;;;;;;;36.90;23.20;;;;;;;1.60;91.62;99727.09;101612;1316;99257;-58
2022/12/07 00:28:27;;;;;;;28.30;17.60;;;;;;;1.62;91.66;99730.38;101545;1316;89034;-59
2022/12/07 00:31:09;;;;;;;28.80;18.40;;;;;;;1.62;91.65;99727.41;101560;1317;95446;-56
2022/12/07 00:33:43;;;;;;;37.60;22.80;;;;;;;1.62;91.63;99727.44;101564;1318;81866;-56
2022/12/07 00:36:20;;;;;;;32.60;20.10;;;;;;;1.64;91.75;99726.90;101556;1316;82041;-57
2022/12/07 00:38:58;;;;;;;33.30;22.60;;;;;;;1.68;91.79;99725.36;101564;1317;98492;-57
2022/12/07 00:41:33;;;;;;;32.50;19.80;;;;;;;1.79;91.63;99719.72;101555;1316;89636;-56
2022/12/07 00:44:07;;;;;;;36.60;21.70;;;;;;;1.80;91.52;99718.92;101793;1313;95231;-56
2022/12/07 00:46:41;;;;;;;38.00;22.90;;;;;;;1.82;91.54;99718.20;101557;1316;80849;-55
2022/12/07 00:49:15;;;;;;;38.40;22.80;;;;;;;1.83;91.61;99716.63;101582;1317;81534;-55
2022/12/07 00:51:52;;;;;;;38.80;22.60;;;;;;;1.82;91.52;99718.54;101727;1317;98873;-56
2022/12/07 00:54:27;;;;;;;39.30;24.70;;;;;;;1.80;91.50;99714.23;101727;1314;89911;-57
2022/12/07 00:57:01;;;;;;;40.10;23.80;;;;;;;1.83;91.79;99715.61;101594;1316;95270;-57
2022/12/07 00:59:41;;;;;;;40.30;23.60;;;;;;;1.83;91.75;99717.02;101607;1317;79221;-56
2022/12/07 01:02:17;;;;;;;39.50;24.30;;;;;;;1.80;91.78;99709.54;101589;1317;82287;-58
2022/12/07 01:04:54;;;;;;;41.10;24.50;;;;;;;1.84;91.82;99712.52;101553;1319;99252;-59
2022/12/07 01:07:28;;;;;;;39.70;24.60;;;;;;;1.91;91.92;99709.68;101574;1316;89557;-57
2022/12/07 01:10:07;;;;;;;38.80;23.60;;;;;;;1.91;91.81;99711.26;101579;1318;95226;-58
2022/12/07 01:12:42;;;;;;;42.50;25.50;;;;;;;1.93;91.91;99709.64;101566;1316;81004;-58
2022/12/07 01:15:18;;;;;;;40.50;23.90;;;;;;;1.98;91.94;99708.98;101556;1316;81849;-55
2022/12/07 01:17:55;;;;;;;41.20;24.10;;;;;;;1.95;91.92;99706.98;101543;1317;98497;-57
2022/12/07 01:20:32;;;;;;;38.40;22.70;;;;;;;1.95;91.97;99707.69;101575;1316;89177;-58
2022/12/07 01:23:11;;;;;;;42.10;24.50;;;;;;;1.90;92.04;99711.36;101572;1317;94737;-59
2022/12/07 01:25:54;;;;;;;40.30;24.60;;;;;;;1.93;92.12;99703.81;101562;1317;81511;-57
2022/12/07 01:28:31;;;;;;;38.10;23.80;;;;;;;1.93;92.11;99700.08;101584;1319;82948;-58
2022/12/07 01:31:11;;;;;;;38.10;24.40;;;;;;;1.92;92.12;99696.07;101703;1317;96773;-55
2022/12/07 01:33:49;;;;;;;39.80;22.40;;;;;;;1.93;92.21;99697.18;101595;1316;86962;-54
2022/12/07 01:36:27;;;;;;;39.40;22.20;;;;;;;1.97;92.21;99695.38;101554;1314;95686;-54
2022/12/07 01:39:05;;;;;;;37.40;22.30;;;;;;;2.01;92.22;99690.94;101639;1320;81063;-55
2022/12/07 01:41:43;;;;;;;38.10;23.40;;;;;;;2.02;92.27;99692.75;101612;1317;82874;-56
2022/12/07 01:44:25;;;;;;;39.60;24.60;;;;;;;2.01;92.25;99697.86;101599;1317;99378;-55
2022/12/07 01:47:01;;;;;;;34.20;22.90;;;;;;;2.02;92.25;99694.91;101599;1317;88998;-56
2022/12/07 01:49:40;;;;;;;37.10;22.60;;;;;;;2.04;92.38;99694.90;101621;1316;92959;-57
2022/12/07 01:52:31;;;;;;;36.40;21.40;;;;;;;2.08;92.36;99693.17;101636;1316;80478;-57
2022/12/07 01:55:13;;;;;;;31.40;20.90;;;;;;;2.09;92.32;99693.61;101617;1316;80689;-58
2022/12/07 01:57:53;;;;;;;30.90;19.30;;;;;;;2.10;92.35;99692.85;101546;1319;97010;-58
2022/12/07 02:00:34;;;;;;;31.00;19.50;;;;;;;2.12;92.39;99687.69;101582;1316;88907;-57
2022/12/07 02:03:15;;;;;;;28.20;17.50;;;;;;;2.14;92.32;99689.06;101557;1317;94830;-57
2022/12/07 02:05:50;;;;;;;25.80;17.80;;;;;;;2.16;92.33;99684.79;101563;1317;81387;-58
2022/12/07 02:08:31;;;;;;;27.20;15.90;;;;;;;2.16;92.28;99681.59;101589;1319;83079;-56
2022/12/07 02:11:10;;;;;;;25.90;15.80;;;;;;;2.18;92.41;99679.61;101587;1316;97587;-58
2022/12/07 02:13:48;;;;;;;22.40;14.30;;;;;;;2.17;92.55;99679.67;101535;1316;90880;-58
2022/12/07 02:16:44;;;;;;;20.80;13.20;;;;;;;2.14;92.36;99678.38;101561;1316;93927;-60
2022/12/07 02:19:54;;;;;;;19.40;12.80;;;;;;;2.17;92.47;99678.04;101563;1317;81619;-59
2022/12/07 02:23:01;;;;;;;19.90;12.40;;;;;;;2.18;92.42;99677.67;101590;1316;82821;-53
2022/12/07 02:25:58;;;;;;;16.90;12.00;;;;;;;2.20;92.46;99676.36;101607;1317;97490;-58
2022/12/07 02:28:38;;;;;;;17.50;12.30;;;;;;;2.23;92.42;99675.12;101646;1319;88785;-60
2022/12/07 02:31:22;;;;;;;17.80;12.40;;;;;;;2.26;92.47;99674.51;101578;1320;93135;-57
2022/12/07 02:34:06;;;;;;;17.50;11.50;;;;;;;2.25;92.52;99675.17;101591;1316;81032;-58
2022/12/07 02:36:48;;;;;;;21.60;13.30;;;;;;;2.25;92.39;99673.58;101605;1316;83384;-60
2022/12/07 02:39:36;;;;;;;21.10;14.10;;;;;;;2.29;92.57;99675.42;101619;1317;98919;-58
2022/12/07 02:42:20;;;;;;;19.50;12.80;;;;;;;2.31;92.43;99676.11;101621;1316;89602;-58
2022/12/07 02:44:57;;;;;;;21.00;13.80;;;;;;;2.33;92.54;99675.77;101579;1317;95352;-58
2022/12/07 02:47:36;;;;;;;19.40;13.00;;;;;;;2.40;92.39;99670.05;101563;1316;81704;-58
2022/12/07 02:50:14;;;;;;;20.00;13.70;;;;;;;2.36;92.29;99671.30;101556;1316;81636;-58
2022/12/07 02:52:48;;;;;;;21.50;13.70;;;;;;;2.38;92.43;99672.75;101596;1316;96711;-59
2022/12/07 02:55:32;;;;;;;17.60;12.20;;;;;;;2.41;92.38;99673.39;101558;1316;87583;-59
2022/12/07 02:58:24;;;;;;;17.90;11.50;;;;;;;2.37;92.44;99669.81;101575;1317;95571;-56
2022/12/07 03:01:11;;;;;;;15.60;10.40;;;;;;;2.37;92.48;99671.20;101569;1318;78793;-58
2022/12/07 03:03:53;;;;;;;16.70;10.60;;;;;;;2.35;92.46;99671.77;101560;1317;82059;-57
2022/12/07 03:06:32;;;;;;;17.30;10.80;;;;;;;2.42;92.35;99672.19;101601;1317;97614;-56
2022/12/07 03:09:21;;;;;;;15.10;9.40;;;;;;;2.48;92.37;99670.17;101570;1316;89174;-55
2022/12/07 03:12:08;;;;;;;14.40;8.90;;;;;;;2.49;92.36;99669.33;101559;1316;95066;-58
2022/12/07 03:14:54;;;;;;;12.20;8.70;;;;;;;2.46;92.30;99667.64;101581;1317;80953;-57
2022/12/07 03:17:36;;;;;;;13.60;8.80;;;;;;;2.45;92.49;99663.00;101648;1316;83278;-56
2022/12/07 03:20:16;;;;;;;11.00;8.70;;;;;;;2.47;92.15;99662.23;101629;1316;99577;-54
2022/12/07 03:22:52;;;;;;;13.30;8.80;;;;;;;2.46;92.27;99662.36;101617;1316;87817;-59
2022/12/07 03:25:29;;;;;;;11.40;7.60;;;;;;;2.48;92.14;99662.35;101630;1318;94114;-58
2022/12/07 03:28:14;;;;;;;9.60;8.40;;;;;;;2.43;92.30;99663.15;101564;1316;80760;-57
2022/12/07 03:30:58;;;;;;;12.70;9.30;;;;;;;2.41;92.30;99659.45;101609;1316;83143;-57
2022/12/07 03:33:46;;;;;;;13.50;8.80;;;;;;;2.41;92.38;99655.02;101542;1316;99259;-56
2022/12/07 03:36:31;;;;;;;11.80;9.60;;;;;;;2.44;92.26;99652.36;101789;1317;88837;-56
2022/12/07 03:39:22;;;;;;;12.00;9.10;;;;;;;2.46;92.21;99648.25;101521;1319;93829;-56
2022/12/07 03:41:58;;;;;;;15.50;9.90;;;;;;;2.46;92.07;99651.38;101562;1316;81762;-59
2022/12/07 03:44:33;;;;;;;13.70;9.30;;;;;;;2.43;92.05;99645.36;101569;1317;80075;-60
2022/12/07 03:47:14;;;;;;;15.20;9.20;;;;;;;2.47;92.27;99639.66;101583;1318;98065;-60
2022/12/07 03:49:59;;;;;;;13.60;9.50;;;;;;;2.47;92.03;99637.40;101578;1316;88593;-58
2022/12/07 03:52:45;;;;;;;14.20;10.00;;;;;;;2.45;92.16;99635.61;101578;1316;94325;-56
2022/12/07 03:55:26;;;;;;;14.10;8.50;;;;;;;2.41;92.08;99634.92;101559;1316;81324;-55
2022/12/07 03:58:09;;;;;;;14.10;8.60;;;;;;;2.42;92.26;99636.32;101569;1316;80962;-56
2022/12/07 04:00:45;;;;;;;18.30;9.40;;;;;;;2.41;92.19;99630.48;101597;1316;98425;-51
2022/12/07 04:03:19;;;;;;;11.50;7.40;;;;;;;2.37;92.11;99632.14;101629;1316;87714;-57
2022/12/07 04:05:56;;;;;;;20.30;9.50;;;;;;;2.37;92.26;99629.88;101606;1316;94119;-58
2022/12/07 04:08:28;;;;;;;;;;;;;;;2.37;92.00;99631.10;101610;1318;82113;-59
2022/12/07 04:11:07;;;;;;;17.60;8.60;;;;;;;2.36;92.22;99629.36;101726;1314;83051;-59
2022/12/07 04:16:39;;;;;;;29.20;13.80;;;;;;;2.30;92.18;99628.25;101553;1316;88760;-58
2022/12/07 04:19:13;;;;;;;13.00;8.80;;;;;;;2.27;92.20;99623.95;101569;1316;95856;-57
2022/12/07 04:21:48;;;;;;;12.90;9.00;;;;;;;2.29;92.14;99625.21;101577;1318;80788;-52
2022/12/07 04:24:26;;;;;;;13.40;9.50;;;;;;;2.29;92.10;99626.21;101553;1319;82672;-57
2022/12/07 04:26:59;;;;;;;15.40;10.90;;;;;;;2.29;92.08;99629.58;101568;1319;97721;-55
2022/12/07 04:29:36;;;;;;;15.40;10.90;;;;;;;2.28;92.12;99627.06;101564;1319;86446;-56
2022/12/07 04:32:10;;;;;;;13.20;9.60;;;;;;;2.25;92.19;99630.23;101524;1314;95685;-59
2022/12/07 04:34:47;;;;;;;12.10;9.20;;;;;;;2.25;92.09;99626.84;101548;1316;80911;-59
2022/12/07 04:37:24;;;;;;;14.50;11.00;;;;;;;2.25;92.02;99622.25;101547;1316;83298;-55
2022/12/07 04:40:01;;;;;;;12.10;9.40;;;;;;;2.22;92.15;99616.83;101571;1319;99525;-55
2022/12/07 04:42:35;;;;;;;14.50;9.00;;;;;;;2.19;92.19;99619.75;101587;1316;88952;-56
2022/12/07 04:45:13;;;;;;;13.40;8.90;;;;;;;2.16;92.10;99618.85;101595;1316;95219;-56
2022/12/07 04:47:47;;;;;;;11.40;7.90;;;;;;;2.18;92.12;99616.67;101630;1316;81265;-55
2022/12/07 04:50:24;;;;;;;12.00;8.50;;;;;;;2.22;92.11;99617.54;101928;1313;84041;-55
2022/12/07 04:53:00;;;;;;;12.10;8.70;;;;;;;2.21;91.99;99620.98;101591;1316;96118;-56
2022/12/07 04:55:34;;;;;;;11.40;8.90;;;;;;;2.19;91.88;99618.71;101656;1316;88884;-57
2022/12/07 04:58:15;;;;;;;14.50;9.60;;;;;;;2.18;91.99;99616.87;101576;1316;93257;-58
2022/12/07 05:00:54;;;;;;;13.80;9.60;;;;;;;2.10;92.05;99613.40;101581;1316;80333;-57
2022/12/07 05:03:29;;;;;;;11.90;8.40;;;;;;;2.12;92.00;99611.32;101582;1316;82012;-57
2022/12/07 05:06:01;;;;;;;;;;;;;;;2.14;91.90;99610.20;101609;1316;98931;-57
2022/12/07 05:08:40;;;;;;;17.40;11.30;;;;;;;2.12;91.97;99611.55;101668;1317;88735;-57
2022/12/07 05:11:37;;;;;;;17.10;11.10;;;;;;;2.05;92.12;99610.58;101572;1317;95846;-57
2022/12/07 05:14:14;;;;;;;18.50;11.30;;;;;;;2.04;92.10;99604.83;101556;1316;79748;-59
2022/12/07 05:16:54;;;;;;;20.40;11.80;;;;;;;2.05;92.01;99602.64;101571;1316;81270;-57
2022/12/07 05:19:29;;;;;;;18.00;10.60;;;;;;;2.05;91.91;99598.33;101565;1315;98160;-57
2022/12/07 05:22:03;;;;;;;31.40;16.40;;;;;;;2.00;91.97;99598.69;101575;1317;87866;-59
2022/12/07 05:24:38;;;;;;;19.10;11.30;;;;;;;2.01;91.93;99599.75;101559;1320;92922;-59
2022/12/07 05:27:12;;;;;;;16.40;10.80;;;;;;;2.02;91.71;99598.12;101656;1317;81271;-55
2022/12/07 05:29:52;;;;;;;16.00;10.60;;;;;;;1.97;91.85;99597.92;101657;1316;83348;-54
2022/12/07 05:32:27;;;;;;;20.70;13.10;;;;;;;1.94;91.88;99597.89;101865;1314;97849;-55
2022/12/07 05:35:09;;;;;;;18.70;11.30;;;;;;;1.90;92.01;99600.42;101682;1316;89512;-58
2022/12/07 05:37:43;;;;;;;19.00;11.90;;;;;;;1.90;92.01;99597.23;101559;1316;94273;-55
2022/12/07 05:40:19;;;;;;;;;;;;;;;1.94;91.97;99598.90;101612;1317;81931;-56
2022/12/07 05:42:53;;;;;;;32.30;16.80;;;;;;;1.96;91.75;99601.02;101577;1320;81439;-57
2022/12/07 05:45:28;;;;;;;20.20;11.50;;;;;;;1.92;91.88;99600.74;101500;1316;98956;-59
2022/12/07 05:48:02;;;;;;;16.50;10.30;;;;;;;1.90;92.04;99603.65;101555;1316;89319;-59
2022/12/07 05:50:39;;;;;;;13.10;9.30;;;;;;;1.89;91.89;99602.48;101789;1313;98064;-57
2022/12/07 05:53:13;;;;;;;13.60;9.70;;;;;;;1.85;91.89;99600.52;101556;1316;81671;-56
2022/12/07 05:55:50;;;;;;;17.20;10.80;;;;;;;1.81;91.93;99603.41;101569;1317;80825;-59
2022/12/07 06:01:21;;;;;;;12.90;9.60;;;;;;;1.78;91.85;99602.81;101552;1316;87706;-56
2022/12/07 06:03:53;;;;;;;;;;;;;;;1.79;91.61;99602.02;101588;1316;94890;-55
2022/12/07 06:06:32;;;;;;;12.40;8.20;;;;;;;1.78;91.80;99604.98;101568;1316;81233;-58
2022/12/07 06:09:09;;;;;;;11.50;8.60;;;;;;;1.77;91.72;99601.11;101570;1314;81820;-59
2022/12/07 06:14:32;;;;;;;15.80;9.80;;;;;;;1.73;91.63;99602.58;101468;1320;88672;-57
2022/12/07 06:17:10;;;;;;;17.00;10.50;;;;;;;1.71;91.57;99600.83;101585;1316;92784;-58
2022/12/07 06:19:46;;;;;;;10.60;8.00;;;;;;;1.67;91.52;99599.83;101604;1317;79811;-58
2022/12/07 06:22:23;;;;;;;11.70;8.30;;;;;;;1.63;91.78;99601.34;101597;1316;81444;-59
2022/12/07 06:24:58;;;;;;;12.10;7.40;;;;;;;1.57;91.76;99597.83;101624;1319;99198;-58
2022/12/07 06:27:36;;;;;;;10.80;7.40;;;;;;;1.60;91.83;99594.73;101567;1317;87120;-57
2022/12/07 06:30:16;;;;;;;10.50;7.30;;;;;;;1.56;91.87;99597.23;101522;1315;95054;-57
2022/12/07 06:32:50;;;;;;;11.40;7.70;;;;;;;1.52;91.82;99596.39;101542;1318;81896;-58
2022/12/07 06:35:24;;;;;;;10.60;7.70;;;;;;;1.59;91.82;99590.86;101560;1318;83133;-57
2022/12/07 06:38:01;;;;;;;9.30;7.60;;;;;;;1.56;91.79;99593.67;101543;1320;97880;-55
2022/12/07 06:40:40;;;;;;;9.00;6.80;;;;;;;1.56;91.79;99596.69;101552;1316;89269;-57
2022/12/07 06:43:17;;;;;;;10.60;7.40;;;;;;;1.54;91.84;99596.38;101581;1316;93261;-57
2022/12/07 06:45:52;;;;;;;10.60;7.30;;;;;;;1.56;91.91;99594.80;101574;1316;81219;-56
2022/12/07 06:48:27;;;;;;;9.30;7.20;;;;;;;1.56;91.77;99592.64;101617;1316;83423;-57
2022/12/07 06:51:03;;;;;;;9.80;7.10;;;;;;;1.56;91.95;99596.30;101587;1316;99410;-59
2022/12/07 06:53:38;;;;;;;10.00;7.00;;;;;;;1.59;91.84;99594.11;101401;1318;489982;-60
2022/12/07 06:56:13;;;;;;;;;;;;;;;1.57;91.77;99592.38;101624;1316;95783;-56
2022/12/07 06:58:47;;;;;;;11.10;7.80;;;;;;;1.57;91.92;99591.31;101590;1317;80974;-57
2022/12/07 07:01:23;;;;;;;12.60;8.10;;;;;;;1.59;91.81;99591.23;101614;1316;81309;-60
2022/12/07 07:03:57;;;;;;;10.70;7.40;;;;;;;1.60;91.80;99589.73;101593;1319;99045;-61
2022/12/07 07:06:33;;;;;;;11.40;7.90;;;;;;;1.60;91.84;99588.67;101638;1317;89391;-58
2022/12/07 07:09:09;;;;;;;9.90;8.00;;;;;;;1.57;91.85;99595.47;101545;1320;95112;-58
2022/12/07 07:11:45;;;;;;;10.40;7.30;;;;;;;1.57;91.77;99596.99;101558;1317;81598;-61
2022/12/07 07:14:22;;;;;;;15.80;12.20;;;;;;;1.57;91.79;99599.33;101543;1320;82792;-61
2022/12/07 07:16:58;;;;;;;11.60;8.20;;;;;;;1.57;91.78;99597.10;101553;1316;98484;-56
2022/12/07 07:19:33;;;;;;;9.20;7.40;;;;;;;1.59;91.80;99596.45;101587;1316;88526;-57
2022/12/07 07:22:10;;;;;;;9.40;7.40;;;;;;;1.60;91.74;99590.84;101553;1317;95396;-58
2022/12/07 07:24:43;;;;;;;11.60;7.70;;;;;;;1.55;91.78;99590.73;101566;1316;78993;-57
2022/12/07 07:27:19;;;;;;;11.00;7.70;;;;;;;1.59;91.97;99592.45;101572;1316;82062;-60
2022/12/07 07:29:57;;;;;;;11.10;7.40;;;;;;;1.60;91.78;99590.05;101540;1320;97275;-59
2022/12/07 07:32:31;;;;;;;10.20;7.10;;;;;;;1.58;92.09;99591.35;101646;1317;89335;-59
2022/12/07 07:35:08;;;;;;;9.60;8.00;;;;;;;1.66;92.09;99592.72;101536;1316;95667;-59
2022/12/07 07:37:42;;;;;;;10.70;6.90;;;;;;;1.69;91.90;99598.61;101630;1318;81298;-61
2022/12/07 07:40:19;;;;;;;9.70;6.70;;;;;;;1.68;91.96;99597.42;101603;1317;82777;-61
2022/12/07 07:42:56;;;;;;;12.50;7.70;;;;;;;1.64;92.00;99597.30;101615;1318;97909;-58
2022/12/07 07:45:33;;;;;;;8.80;7.20;;;;;;;1.65;91.99;99600.10;101608;1316;88048;-58
2022/12/07 07:48:10;;;;;;;8.90;7.20;;;;;;;1.69;91.87;99595.56;101721;1318;94069;-57
2022/12/07 07:50:43;;;;;;;12.40;10.40;;;;;;;1.68;91.84;99590.52;101601;1316;81921;-57
2022/12/07 07:53:21;;;;;;;10.70;8.10;;;;;;;1.66;92.16;99595.02;101554;1318;81733;-58
2022/12/07 07:55:58;;;;;;;12.00;7.50;;;;;;;1.72;92.15;99592.92;101587;1320;97402;-60
2022/12/07 07:58:40;;;;;;;9.60;7.20;;;;;;;1.75;91.98;99592.11;101548;1316;87212;-61
2022/12/07 08:01:16;;;;;;;10.30;7.30;;;;;;;1.72;91.88;99593.32;101559;1316;95392;-60
2022/12/07 08:03:52;;;;;;;12.40;7.70;;;;;;;1.69;92.14;99595.36;101567;1316;80312;-61
2022/12/07 08:06:28;;;;;;;10.90;7.40;;;;;;;1.77;92.02;99594.78;101555;1316;83581;-58
2022/12/07 08:09:04;;;;;;;10.50;7.80;;;;;;;1.78;92.10;99597.33;101587;1316;96917;-58
2022/12/07 08:11:38;;;;;;;12.40;7.40;;;;;;;1.82;92.08;99596.83;101562;1316;87817;-61
2022/12/07 08:14:12;;;;;;;12.40;7.40;;;;;;;1.86;91.99;99595.09;101565;1316;95828;-60
2022/12/07 08:16:46;;;;;;;12.20;7.80;;;;;;;1.88;91.94;99599.18;101584;1316;81414;-57
2022/12/07 08:19:23;;;;;;;16.40;11.40;;;;;;;1.83;92.13;99601.50;101581;1316;83022;-58
2022/12/07 08:21:59;;;;;;;11.60;8.40;;;;;;;1.88;91.98;99604.54;101578;1317;98107;-58
2022/12/07 08:24:36;;;;;;;12.20;7.80;;;;;;;1.86;92.07;99608.58;101612;1316;89799;-60
2022/12/07 08:27:11;;;;;;;13.10;8.20;;;;;;;1.87;92.06;99612.23;101617;1316;92797;-56
2022/12/07 08:29:45;;;;;;;13.10;8.20;;;;;;;1.92;92.23;99612.42;101610;1316;79623;-57
2022/12/07 08:32:21;;;;;;;14.10;9.20;;;;;;;1.96;92.17;99613.48;101530;1316;81181;-57
2022/12/07 08:34:56;;;;;;;12.20;8.00;;;;;;;1.91;92.11;99616.61;101546;1316;98785;-58
2022/12/07 08:37:32;;;;;;;12.60;8.50;;;;;;;1.92;92.21;99617.98;101595;1319;88347;-56
2022/12/07 08:40:10;;;;;;;11.20;8.40;;;;;;;1.91;92.25;99618.77;101539;1316;94602;-55
2022/12/07 08:42:44;;;;;;;12.00;8.20;;;;;;;1.94;92.26;99616.73;101606;1316;79981;-56
2022/12/07 08:45:27;;;;;;;12.60;8.60;;;;;;;2.00;92.27;99622.76;101595;1319;82155;-56
2022/12/07 08:48:07;;;;;;;13.90;9.00;;;;;;;2.05;92.41;99623.59;101615;1316;98388;-56
2022/12/07 08:50:44;;;;;;;16.10;9.90;;;;;;;2.10;92.19;99617.37;101735;1314;88067;-56
2022/12/07 08:53:20;;;;;;;16.70;10.30;;;;;;;2.13;92.21;99618.70;101538;1316;94391;-55
2022/12/07 08:55:57;;;;;;;15.30;11.00;;;;;;;2.18;92.35;99616.90;101622;1320;80293;-59
2022/12/07 08:58:33;;;;;;;17.30;10.60;;;;;;;2.25;92.23;99615.25;101889;1317;81716;-59
2022/12/07 09:01:11;;;;;;;16.80;10.20;;;;;;;2.31;92.41;99611.96;101628;1316;99441;-58
2022/12/07 09:03:47;;;;;;;17.60;10.70;;;;;;;2.35;92.55;99610.69;101662;1320;88484;-58
2022/12/07 09:06:22;;;;;;;16.50;11.00;;;;;;;2.41;92.59;99608.44;101664;1317;94926;-61
2022/12/07 09:09:02;;;;;;;18.70;11.20;;;;;;;2.45;92.64;99600.63;101649;1316;81020;-58
2022/12/07 09:11:38;;;;;;;16.30;10.50;;;;;;;2.51;92.56;99596.77;101661;1316;82683;-56
2022/12/07 09:14:14;;;;;;;17.70;11.00;;;;;;;2.59;92.50;99597.75;101586;1316;98622;-57
2022/12/07 09:16:50;;;;;;;15.30;10.10;;;;;;;2.64;92.46;99592.38;101603;1316;87835;-58
2022/12/07 09:19:24;;;;;;;16.50;11.20;;;;;;;2.65;92.52;99593.52;101558;1316;94217;-58
2022/12/07 09:22:00;;;;;;;17.90;11.10;;;;;;;2.74;92.34;99588.36;101616;1316;79557;-59
2022/12/07 09:24:36;;;;;;;17.40;10.90;;;;;;;2.79;92.38;99590.78;101602;1320;82352;-58
2022/12/07 09:27:12;;;;;;;15.40;10.50;;;;;;;2.85;92.28;99585.88;101580;1317;99697;-57
2022/12/07 09:29:52;;;;;;;16.20;10.60;;;;;;;2.85;92.23;99580.55;101563;1316;88390;-59
2022/12/07 09:32:31;;;;;;;16.90;10.50;;;;;;;2.91;92.34;99581.67;101592;1318;94380;-58
2022/12/07 09:35:10;;;;;;;16.00;10.80;;;;;;;2.98;92.26;99580.60;101799;1314;80780;-58
2022/12/07 09:37:45;;;;;;;19.90;11.00;;;;;;;2.98;92.17;99583.04;101600;1320;83679;-57
2022/12/07 09:40:23;;;;;;;15.50;10.20;;;;;;;2.99;92.30;99579.98;101589;1318;98780;-56
2022/12/07 09:42:58;;;;;;;18.00;10.10;;;;;;;3.01;92.22;99580.32;101643;1316;87952;-60
2022/12/07 09:45:37;;;;;;;16.40;9.70;;;;;;;3.02;92.32;99575.28;101643;1317;94869;-60
2022/12/07 09:48:21;;;;;;;16.30;10.90;;;;;;;3.12;92.11;99574.94;101575;1316;80445;-59
2022/12/07 09:50:58;;;;;;;19.70;12.90;;;;;;;3.14;92.02;99578.25;101611;1317;83992;-58
2022/12/07 09:53:39;;;;;;;20.70;12.00;;;;;;;3.17;91.98;99572.56;101710;1316;99344;-55
2022/12/07 09:56:16;;;;;;;17.00;11.10;;;;;;;3.17;92.04;99571.15;101612;1316;86529;-58
2022/12/07 09:59:00;;;;;;;19.90;10.80;;;;;;;3.17;91.83;99568.79;101580;1316;95107;-57
2022/12/07 10:01:40;;;;;;;19.90;10.60;;;;;;;3.19;91.80;99565.63;101537;1314;81985;-53
2022/12/07 10:04:21;;;;;;;17.30;9.40;;;;;;;3.16;91.74;99567.02;101522;1316;81661;-58
2022/12/07 10:06:58;;;;;;;15.80;10.30;;;;;;;3.12;91.63;99564.91;101543;1317;97334;-57
2022/12/07 10:09:36;;;;;;;18.40;10.00;;;;;;;3.12;91.47;99565.30;101572;1316;88439;-57
2022/12/07 10:12:13;;;;;;;18.10;9.90;;;;;;;3.14;91.68;99565.70;101553;1320;94145;-58
2022/12/07 10:15:02;;;;;;;18.70;9.50;;;;;;;3.13;91.57;99563.35;101812;1313;79181;-57
2022/12/07 10:17:41;;;;;;;16.80;9.50;;;;;;;3.17;91.44;99568.48;101621;1316;81394;-57
2022/12/07 10:20:26;;;;;;;17.00;10.70;;;;;;;3.16;91.34;99568.02;101598;1317;98110;-56
2022/12/07 10:23:04;;;;;;;17.70;10.80;;;;;;;3.19;91.45;99567.48;101589;1316;88293;-57
2022/12/07 10:25:40;;;;;;;21.60;11.50;;;;;;;3.24;91.15;99565.78;101608;1316;92739;-61
2022/12/07 10:28:20;;;;;;;18.90;11.50;;;;;;;3.28;91.12;99563.48;101576;1316;80901;-61
2022/12/07 10:31:16;;;;;;;19.40;11.10;;;;;;;3.25;91.06;99560.64;101590;1320;81553;-59
2022/12/07 10:34:01;;;;;;;18.50;11.40;;;;;;;3.21;91.14;99557.55;101556;1317;98651;-58
2022/12/07 10:36:41;;;;;;;19.90;12.60;;;;;;;3.26;91.35;99555.40;101588;1320;88914;-58
2022/12/07 10:39:20;;;;;;;17.80;12.00;;;;;;;3.30;91.14;99557.79;101564;1316;95291;-59
2022/12/07 10:42:03;;;;;;;18.40;11.70;;;;;;;3.37;91.27;99558.11;101583;1316;80805;-58
2022/12/07 10:44:42;;;;;;;17.80;10.20;;;;;;;3.39;91.36;99558.80;101579;1316;80424;-58
2022/12/07 10:47:34;;;;;;;16.80;10.60;;;;;;;3.40;91.07;99556.37;101543;1316;98118;-60
2022/12/07 10:50:43;;;;;;;18.50;11.40;;;;;;;3.45;91.22;99553.67;101541;1316;88508;-60
2022/12/07 10:53:48;;;;;;;18.30;11.30;;;;;;;3.52;90.79;99556.45;101769;1314;93322;-61
2022/12/07 10:56:57;;;;;;;18.50;12.70;;;;;;;3.52;90.77;99555.02;101599;1317;79439;-57
2022/12/07 10:59:54;;;;;;;19.70;12.50;;;;;;;3.55;90.83;99556.98;101618;1317;83526;-59
2022/12/07 11:02:58;;;;;;;19.10;12.70;;;;;;;3.59;90.76;99552.48;101774;1316;98952;-57
2022/12/07 11:05:44;;;;;;;15.80;12.20;;;;;;;3.58;90.55;99553.82;101581;1317;88589;-60
2022/12/07 11:08:33;;;;;;;16.00;11.40;;;;;;;3.61;90.56;99551.98;101613;1316;93618;-59
2022/12/07 11:11:21;;;;;;;16.00;11.10;;;;;;;3.62;90.63;99546.18;101618;1318;80539;-54
2022/12/07 11:14:04;;;;;;;14.50;11.20;;;;;;;3.64;90.55;99553.98;101586;1318;81371;-59
2022/12/07 11:16:59;;;;;;;13.60;11.30;;;;;;;3.65;90.52;99552.09;101627;1317;98941;-60
2022/12/07 11:19:52;;;;;;;14.00;10.60;;;;;;;3.64;90.73;99556.66;101608;1317;88193;-62
2022/12/07 11:22:39;;;;;;;15.90;11.60;;;;;;;3.64;90.77;99557.16;101556;1316;96236;-56
2022/12/07 11:25:32;;;;;;;14.20;11.70;;;;;;;3.65;90.79;99556.83;101564;1314;80282;-57
2022/12/07 11:28:30;;;;;;;15.10;10.90;;;;;;;3.69;90.72;99556.59;101553;1319;83652;-59
2022/12/07 11:31:20;;;;;;;16.00;12.10;;;;;;;3.75;90.60;99552.70;101597;1316;96428;-60
2022/12/07 11:34:02;;;;;;;16.10;11.80;;;;;;;3.78;90.52;99548.27;101597;1320;89004;-60
2022/12/07 11:36:42;;;;;;;14.80;10.60;;;;;;;3.81;90.61;99539.05;101567;1320;95454;-56
2022/12/07 11:39:30;;;;;;;14.60;11.40;;;;;;;3.81;90.43;99538.33;101516;1316;81175;-57
2022/12/07 11:42:14;;;;;;;14.40;10.40;;;;;;;3.89;90.57;99539.80;101578;1317;79931;-56
2022/12/07 11:44:58;;;;;;;14.80;11.20;;;;;;;3.94;90.51;99541.57;101557;1316;99187;-57
2022/12/07 11:47:48;;;;;;;17.00;12.60;;;;;;;4.03;90.50;99541.64;101579;1316;87494;-58
2022/12/07 11:50:41;;;;;;;14.80;12.00;;;;;;;4.14;90.35;99532.89;101578;1317;95478;-59
2022/12/07 11:53:28;;;;;;;15.60;12.30;;;;;;;4.20;90.13;99534.52;101594;1316;80970;-57
2022/12/07 11:56:13;;;;;;;14.50;11.50;;;;;;;4.21;89.88;99530.02;101593;1316;81238;-60
2022/12/07 11:58:59;;;;;;;14.40;11.60;;;;;;;4.21;89.66;99528.94;101628;1316;100005;-60
2022/12/07 12:01:50;;;;;;;14.80;12.20;;;;;;;4.14;90.03;99528.55;101616;1317;88321;-59
2022/12/07 12:04:51;;;;;;;17.00;12.60;;;;;;;4.24;89.86;99527.55;101584;1317;94869;-60
2022/12/07 12:07:28;;;;;;;17.60;12.20;;;;;;;4.28;89.67;99525.80;101545;1316;79062;-57
2022/12/07 12:10:15;;;;;;;15.50;11.50;;;;;;;4.22;89.94;99524.83;101603;1318;81324;-60
2022/12/07 12:13:08;;;;;;;14.50;11.30;;;;;;;4.11;89.64;99524.11;101585;1316;99435;-61
2022/12/07 12:16:10;;;;;;;14.40;11.30;;;;;;;4.01;89.38;99525.60;101566;1320;89039;-61
2022/12/07 12:19:05;;;;;;;15.70;11.10;;;;;;;3.88;89.23;99529.13;101528;1316;93740;-60
2022/12/07 12:21:42;;;;;;;13.70;11.30;;;;;;;3.78;89.43;99519.64;101562;1315;81006;-60
2022/12/07 12:24:24;;;;;;;13.80;11.10;;;;;;;3.74;89.54;99520.21;101559;1316;82652;-59
2022/12/07 12:27:06;;;;;;;14.10;11.00;;;;;;;3.76;89.46;99513.73;101593;1318;98038;-57
2022/12/07 12:29:45;;;;;;;14.80;10.50;;;;;;;3.77;89.51;99505.89;101633;1316;88176;-56